createdAt,value
2022-12-18T00:00:09.351Z,-1.85
2022-12-18T00:02:37.205Z,-1.85
2022-12-18T00:05:05.569Z,-1.81
2022-12-18T00:07:34.877Z,-1.88
2022-12-18T00:10:02.791Z,-1.90
2022-12-18T00:12:30.828Z,-2.00
2022-12-18T00:14:58.866Z,-2.00
2022-12-18T00:17:26.846Z,-1.99
2022-12-18T00:19:54.686Z,-2.04
2022-12-18T00:22:22.717Z,-2.09
2022-12-18T00:24:52.206Z,-2.10
2022-12-18T00:27:20.494Z,-2.03
2022-12-18T00:29:50.005Z,-2.07
2022-12-18T00:32:18.166Z,-2.06
2022-12-18T00:34:46.589Z,-2.08
2022-12-18T00:37:19.898Z,-2.05
2022-12-18T00:39:52.010Z,-2.09
2022-12-18T00:42:37.920Z,-2.16
2022-12-18T00:45:12.911Z,-2.17
2022-12-18T00:47:41.902Z,-2.19
2022-12-18T00:50:12.795Z,-2.21
2022-12-18T00:52:41.263Z,-2.24
2022-12-18T00:55:11.715Z,-2.26
2022-12-18T00:57:42.224Z,-2.22
2022-12-18T01:00:14.678Z,-2.23
2022-12-18T01:02:43.407Z,-2.31
2022-12-18T01:05:12.801Z,-2.31
2022-12-18T01:07:40.896Z,-2.29
2022-12-18T01:10:14.346Z,-2.37
2022-12-18T01:12:42.529Z,-2.40
2022-12-18T01:15:12.119Z,-2.35
2022-12-18T01:17:40.420Z,-2.33
2022-12-18T01:20:10.020Z,-2.34
2022-12-18T01:22:38.153Z,-2.44
2022-12-18T01:25:07.477Z,-2.42
2022-12-18T01:27:36.968Z,-2.35
2022-12-18T01:30:05.843Z,-2.38
2022-12-18T01:32:33.745Z,-2.42
2022-12-18T01:35:01.782Z,-2.38
2022-12-18T01:37:29.776Z,-2.39
2022-12-18T01:39:58.010Z,-2.42
2022-12-18T01:42:26.618Z,-2.52
2022-12-18T01:45:09.155Z,-2.53
2022-12-18T01:47:45.557Z,-2.49
2022-12-18T01:50:17.384Z,-2.47
2022-12-18T01:52:48.941Z,-2.46
2022-12-18T01:55:18.745Z,-2.46
2022-12-18T01:57:47.284Z,-2.45
2022-12-18T02:00:20.820Z,-2.42
2022-12-18T02:02:49.199Z,-2.46
2022-12-18T02:05:20.125Z,-2.48
2022-12-18T02:07:58.774Z,-2.54
2022-12-18T02:10:33.717Z,-2.48
2022-12-18T02:13:09.137Z,-2.45
2022-12-18T02:15:42.920Z,-2.44
2022-12-18T02:18:14.919Z,-2.44
2022-12-18T02:20:46.904Z,-2.47
2022-12-18T02:23:26.445Z,-2.47
2022-12-18T02:26:14.477Z,-2.42
2022-12-18T02:28:46.235Z,-2.54
2022-12-18T02:31:18.846Z,-2.62
2022-12-18T02:33:48.590Z,-2.52
2022-12-18T02:36:19.503Z,-2.55
2022-12-18T02:38:48.852Z,-2.53
2022-12-18T02:41:20.356Z,-2.61
2022-12-18T02:43:55.864Z,-2.61
2022-12-18T02:46:32.230Z,-2.73
2022-12-18T02:49:08.711Z,-2.77
2022-12-18T02:51:47.918Z,-2.72
2022-12-18T02:54:31.618Z,-2.71
2022-12-18T02:57:08.844Z,-2.69
2022-12-18T02:59:43.057Z,-2.72
2022-12-18T03:02:22.860Z,-2.71
2022-12-18T03:04:59.300Z,-2.75
2022-12-18T03:07:36.203Z,-2.79
2022-12-18T03:10:04.809Z,-2.79
2022-12-18T03:12:39.928Z,-2.73
2022-12-18T03:15:17.659Z,-2.72
2022-12-18T03:17:52.095Z,-2.79
2022-12-18T03:20:23.812Z,-2.77
2022-12-18T03:22:59.572Z,-2.81
2022-12-18T03:25:29.440Z,-2.88
2022-12-18T03:28:02.165Z,-2.85
2022-12-18T03:30:32.772Z,-2.86
2022-12-18T03:33:08.244Z,-2.94
2022-12-18T03:35:39.716Z,-2.92
2022-12-18T03:38:07.795Z,-2.91
2022-12-18T03:40:45.114Z,-3.05
2022-12-18T03:43:21.334Z,-3.05
2022-12-18T03:45:56.259Z,-3.09
2022-12-18T03:48:31.684Z,-3.11
2022-12-18T03:51:02.277Z,-3.11
2022-12-18T03:53:39.333Z,-3.11
2022-12-18T03:56:09.144Z,-3.12
2022-12-18T03:58:40.320Z,-3.12
2022-12-18T04:01:12.843Z,-3.07
2022-12-18T04:03:43.290Z,-3.11
2022-12-18T04:06:13.222Z,-3.15
2022-12-18T04:08:42.100Z,-3.14
2022-12-18T04:11:10.038Z,-3.14
2022-12-18T04:13:40.692Z,-3.13
2022-12-18T04:16:10.393Z,-3.10
2022-12-18T04:18:39.362Z,-3.16
2022-12-18T04:21:07.378Z,-3.16
2022-12-18T04:23:35.188Z,-3.14
2022-12-18T04:26:02.986Z,-3.16
2022-12-18T04:28:30.909Z,-3.15
2022-12-18T04:31:00.137Z,-3.17
2022-12-18T04:33:28.090Z,-3.18
2022-12-18T04:35:55.990Z,-3.15
2022-12-18T04:38:23.861Z,-3.18
2022-12-18T04:40:51.656Z,-3.28
2022-12-18T04:43:19.714Z,-3.26
2022-12-18T04:45:47.603Z,-3.20
2022-12-18T04:48:16.822Z,-3.27
2022-12-18T04:50:44.650Z,-3.36
2022-12-18T04:53:12.504Z,-3.28
2022-12-18T04:55:40.377Z,-3.31
2022-12-18T04:58:08.247Z,-3.31
2022-12-18T05:00:37.590Z,-3.30
2022-12-18T05:03:05.500Z,-3.33
2022-12-18T05:05:36.917Z,-3.39
2022-12-18T05:08:05.022Z,-3.34
2022-12-18T05:10:38.008Z,-3.42
2022-12-18T05:13:06.358Z,-3.43
2022-12-18T05:15:35.121Z,-3.42
2022-12-18T05:18:03.734Z,-3.40
2022-12-18T05:20:32.102Z,-3.41
2022-12-18T05:23:01.394Z,-3.39
2022-12-18T05:25:29.299Z,-3.44
2022-12-18T05:27:57.443Z,-3.51
2022-12-18T05:30:25.947Z,-3.51
2022-12-18T05:32:53.785Z,-3.54
2022-12-18T05:35:21.897Z,-3.56
2022-12-18T05:37:49.667Z,-3.51
2022-12-18T05:40:18.990Z,-3.51
2022-12-18T05:42:46.985Z,-3.50
2022-12-18T05:45:14.787Z,-3.50
2022-12-18T05:47:42.624Z,-3.57
2022-12-18T05:50:10.794Z,-3.54
2022-12-18T05:52:38.680Z,-3.58
2022-12-18T05:55:07.008Z,-3.48
2022-12-18T05:57:36.360Z,-3.45
2022-12-18T06:00:05.020Z,-3.49
2022-12-18T06:02:32.863Z,-3.50
2022-12-18T06:05:00.727Z,-3.50
2022-12-18T06:07:28.557Z,-3.49
2022-12-18T06:09:56.557Z,-3.44
2022-12-18T06:12:24.483Z,-3.48
2022-12-18T06:14:53.664Z,-3.56
2022-12-18T06:17:21.438Z,-3.50
2022-12-18T06:19:49.320Z,-3.48
2022-12-18T06:22:17.872Z,-3.51
2022-12-18T06:24:45.773Z,-3.43
2022-12-18T06:27:13.831Z,-3.50
2022-12-18T06:29:41.719Z,-3.57
2022-12-18T06:32:11.119Z,-3.49
2022-12-18T06:34:40.228Z,-3.59
2022-12-18T06:37:08.049Z,-3.53
2022-12-18T06:39:35.851Z,-3.55
2022-12-18T06:42:03.783Z,-3.58
2022-12-18T06:44:31.559Z,-3.59
2022-12-18T06:46:59.393Z,-3.51
2022-12-18T06:49:30.558Z,-3.52
2022-12-18T06:51:58.667Z,-3.50
2022-12-18T06:54:26.616Z,-3.55
2022-12-18T06:56:54.490Z,-3.59
2022-12-18T06:59:22.274Z,-3.61
2022-12-18T07:01:50.647Z,-3.65
2022-12-18T07:04:19.744Z,-3.60
2022-12-18T07:06:48.931Z,-3.65
2022-12-18T07:09:16.866Z,-3.61
2022-12-18T07:11:44.847Z,-3.60
2022-12-18T07:14:12.916Z,-3.59
2022-12-18T07:16:41.820Z,-3.59
2022-12-18T07:19:09.896Z,-3.58
2022-12-18T07:21:38.100Z,-3.58
2022-12-18T07:24:08.595Z,-3.63
2022-12-18T07:26:36.601Z,-3.70
2022-12-18T07:29:04.563Z,-3.65
2022-12-18T07:31:32.482Z,-3.65
2022-12-18T07:34:00.564Z,-3.60
2022-12-18T07:36:28.479Z,-3.63
2022-12-18T07:38:57.051Z,-3.57
2022-12-18T07:41:26.382Z,-3.60
2022-12-18T07:43:54.251Z,-3.58
2022-12-18T07:46:22.105Z,-3.61
2022-12-18T07:48:50.495Z,-3.54
2022-12-18T07:51:19.344Z,-3.52
2022-12-18T07:53:52.213Z,-3.59
2022-12-18T07:56:29.493Z,-3.63
2022-12-18T07:59:00.626Z,-3.65
2022-12-18T08:01:29.746Z,-3.64
2022-12-18T08:03:57.871Z,-3.66
2022-12-18T08:06:26.154Z,-3.64
2022-12-18T08:08:55.572Z,-3.63
2022-12-18T08:11:24.990Z,-3.54
2022-12-18T08:13:52.871Z,-3.51
2022-12-18T08:16:23.277Z,-3.50
2022-12-18T08:18:51.271Z,-3.51
2022-12-18T08:21:24.037Z,-3.56
2022-12-18T08:23:52.898Z,-3.53
2022-12-18T08:26:21.092Z,-3.46
2022-12-18T08:28:50.765Z,-3.42
2022-12-18T08:31:19.404Z,-3.45
2022-12-18T08:33:51.202Z,-3.40
2022-12-18T08:36:19.462Z,-3.40
2022-12-18T08:38:47.457Z,-3.35
2022-12-18T08:41:17.038Z,-3.24
2022-12-18T08:44:02.506Z,-3.21
2022-12-18T08:46:37.604Z,-3.15
2022-12-18T08:49:07.383Z,-3.18
2022-12-18T08:51:35.871Z,-3.11
2022-12-18T08:54:06.346Z,-3.09
2022-12-18T08:56:35.359Z,-3.12
2022-12-18T08:59:03.614Z,-3.08
2022-12-18T09:01:31.710Z,-3.08
2022-12-18T09:03:59.953Z,-3.03
2022-12-18T09:06:29.356Z,-3.02
2022-12-18T09:08:57.372Z,-2.92
2022-12-18T09:11:27.451Z,-2.92
2022-12-18T09:13:56.495Z,-2.84
2022-12-18T09:16:31.728Z,-2.81
2022-12-18T09:19:01.401Z,-2.80
2022-12-18T09:21:34.782Z,-2.74
2022-12-18T09:24:08.674Z,-2.76
2022-12-18T09:26:37.338Z,-2.71
2022-12-18T09:29:05.592Z,-2.73
2022-12-18T09:31:33.483Z,-2.66
2022-12-18T09:34:01.908Z,-2.59
2022-12-18T09:36:31.456Z,-2.49
2022-12-18T09:39:03.752Z,-2.48
2022-12-18T09:41:45.434Z,-2.36
2022-12-18T09:44:21.277Z,-2.31
2022-12-18T09:46:53.668Z,-2.19
2022-12-18T09:49:25.944Z,-2.11
2022-12-18T09:51:59.678Z,-2.21
2022-12-18T09:54:36.978Z,-2.21
2022-12-18T09:57:05.923Z,-2.14
2022-12-18T09:59:38.957Z,-2.08
2022-12-18T10:02:23.587Z,-2.05
2022-12-18T10:05:05.077Z,-1.92
2022-12-18T10:07:45.143Z,-1.86
2022-12-18T10:10:24.993Z,-1.76
2022-12-18T10:13:05.560Z,-1.62
2022-12-18T10:15:42.612Z,-1.53
2022-12-18T10:18:24.293Z,-1.55
2022-12-18T10:20:56.716Z,-1.43
2022-12-18T10:23:30.709Z,-1.36
2022-12-18T10:26:04.515Z,-1.25
2022-12-18T10:28:34.291Z,-1.28
2022-12-18T10:31:02.450Z,-1.17
2022-12-18T10:33:32.884Z,-1.22
2022-12-18T10:36:01.761Z,-1.17
2022-12-18T10:38:32.816Z,-1.06
2022-12-18T10:41:03.107Z,-1.06
2022-12-18T10:43:32.343Z,-1.04
2022-12-18T10:46:04.361Z,-0.98
2022-12-18T10:48:33.874Z,-0.92
2022-12-18T10:51:10.916Z,-1.03
2022-12-18T10:53:44.807Z,-0.98
2022-12-18T10:56:13.348Z,-0.96
2022-12-18T10:58:42.148Z,-0.87
2022-12-18T11:01:13.656Z,-0.72
2022-12-18T11:03:43.172Z,-0.55
2022-12-18T11:06:13.822Z,-0.44
2022-12-18T11:08:44.848Z,-0.36
2022-12-18T11:11:22.623Z,-0.41
2022-12-18T11:14:04.785Z,-0.44
2022-12-18T11:16:38.994Z,-0.61
2022-12-18T11:19:24.560Z,-0.51
2022-12-18T11:21:52.975Z,-0.41
2022-12-18T11:24:29.497Z,-0.32
2022-12-18T11:26:59.938Z,-0.33
2022-12-18T11:29:34.868Z,-0.31
2022-12-18T11:32:32.162Z,-0.13
2022-12-18T11:35:06.227Z,-0.16
2022-12-18T11:37:35.200Z,-0.11
2022-12-18T11:40:13.916Z,-0.09
2022-12-18T11:42:47.773Z,-0.10
2022-12-18T11:45:37.560Z,-0.22
2022-12-18T11:48:15.498Z,-0.31
2022-12-18T11:50:50.816Z,-0.20
2022-12-18T11:53:19.598Z,-0.21
2022-12-18T11:55:58.669Z,-0.12
2022-12-18T11:58:46.983Z,-0.03
2022-12-18T12:01:43.851Z,-0.05
2022-12-18T12:04:35.793Z,-0.17
2022-12-18T12:07:14.465Z,-0.21
2022-12-18T12:10:10.182Z,-0.18
2022-12-18T12:12:49.021Z,-0.16
2022-12-18T12:15:33.998Z,-0.09
2022-12-18T12:18:11.859Z,-0.07
2022-12-18T12:20:52.619Z,0.07
2022-12-18T12:23:28.739Z,0.15
2022-12-18T12:26:03.627Z,0.19
2022-12-18T12:28:54.756Z,0.20
2022-12-18T12:31:35.971Z,0.17
2022-12-18T12:34:14.383Z,0.25
2022-12-18T12:36:53.438Z,0.14
2022-12-18T12:39:26.882Z,0.13
2022-12-18T12:42:13.900Z,0.18
2022-12-18T12:44:52.640Z,0.04
2022-12-18T12:47:28.834Z,0.15
2022-12-18T12:50:00.316Z,0.28
2022-12-18T12:52:33.368Z,0.30
2022-12-18T12:55:04.085Z,0.44
2022-12-18T12:57:37.191Z,0.33
2022-12-18T13:00:12.425Z,0.34
2022-12-18T13:02:47.881Z,0.29
2022-12-18T13:05:24.249Z,0.32
2022-12-18T13:07:59.302Z,0.26
2022-12-18T13:10:33.696Z,0.37
2022-12-18T13:13:03.442Z,0.48
2022-12-18T13:15:41.194Z,0.48
2022-12-18T13:18:21.623Z,0.62
2022-12-18T13:20:55.406Z,0.60
2022-12-18T13:23:37.432Z,0.58
2022-12-18T13:26:31.933Z,0.56
2022-12-18T13:29:04.219Z,0.47
2022-12-18T13:32:10.726Z,0.50
2022-12-18T13:34:40.310Z,0.37
2022-12-18T13:37:43.185Z,0.37
2022-12-18T13:40:56.403Z,0.33
2022-12-18T13:43:46.297Z,0.12
2022-12-18T13:46:26.472Z,0.06
2022-12-18T13:48:58.668Z,-0.10
2022-12-18T13:51:29.638Z,-0.18
2022-12-18T13:54:00.794Z,-0.06
2022-12-18T13:56:31.987Z,-0.04
2022-12-18T13:59:24.851Z,-0.08
2022-12-18T14:01:57.108Z,-0.18
2022-12-18T14:04:28.539Z,-0.18
2022-12-18T14:07:04.174Z,-0.27
2022-12-18T14:09:37.057Z,-0.28
2022-12-18T14:12:25.736Z,-0.27
2022-12-18T14:14:55.569Z,-0.24
2022-12-18T14:17:26.590Z,-0.33
2022-12-18T14:19:55.056Z,-0.30
2022-12-18T14:22:28.943Z,-0.30
2022-12-18T14:25:16.673Z,-0.33
2022-12-18T14:27:46.271Z,-0.43
2022-12-18T14:30:33.735Z,-0.41
2022-12-18T14:33:07.100Z,-0.45
2022-12-18T14:35:36.210Z,-0.60
2022-12-18T14:38:25.124Z,-0.70
2022-12-18T14:41:02.044Z,-0.69
2022-12-18T14:43:32.137Z,-0.62
2022-12-18T14:46:00.950Z,-0.50
2022-12-18T14:48:38.365Z,-0.55
2022-12-18T14:51:08.527Z,-0.59
2022-12-18T14:53:41.879Z,-0.62
2022-12-18T14:56:17.738Z,-0.62
2022-12-18T14:58:55.864Z,-0.62
2022-12-18T15:01:27.703Z,-0.58
2022-12-18T15:03:57.250Z,-0.59
2022-12-18T15:06:32.764Z,-0.62
2022-12-18T15:09:03.933Z,-0.65
2022-12-18T15:11:51.602Z,-0.66
2022-12-18T15:14:33.808Z,-0.84
2022-12-18T15:17:04.155Z,-0.87
2022-12-18T15:19:38.467Z,-0.85
2022-12-18T15:22:06.982Z,-0.90
2022-12-18T15:24:36.577Z,-0.91
2022-12-18T15:27:06.170Z,-0.87
2022-12-18T15:29:34.417Z,-0.83
2022-12-18T15:32:05.003Z,-0.79
2022-12-18T15:34:35.055Z,-0.82
2022-12-18T15:37:03.155Z,-0.88
2022-12-18T15:39:31.161Z,-0.91
2022-12-18T15:42:18.500Z,-0.89
2022-12-18T15:44:46.817Z,-0.83
2022-12-18T15:47:15.344Z,-0.88
2022-12-18T15:49:43.374Z,-0.98
2022-12-18T15:52:27.186Z,-0.86
2022-12-18T15:55:23.482Z,-0.88
2022-12-18T15:57:53.341Z,-0.92
2022-12-18T16:00:21.985Z,-0.90
2022-12-18T16:02:50.222Z,-0.90
2022-12-18T16:05:20.034Z,-0.78
2022-12-18T16:07:48.929Z,-0.75
2022-12-18T16:10:17.570Z,-0.85
2022-12-18T16:12:46.050Z,-0.73
2022-12-18T16:15:22.456Z,-0.73
2022-12-18T16:17:53.027Z,-0.74
2022-12-18T16:20:25.010Z,-0.76
2022-12-18T16:22:54.315Z,-0.73
2022-12-18T16:25:28.226Z,-0.79
2022-12-18T16:27:57.946Z,-0.80
2022-12-18T16:30:29.504Z,-0.94
2022-12-18T16:33:03.010Z,-0.97
2022-12-18T16:35:31.227Z,-1.07
2022-12-18T16:37:59.381Z,-1.00
2022-12-18T16:40:27.346Z,-1.02
2022-12-18T16:42:55.313Z,-1.10
2022-12-18T16:45:23.851Z,-1.10
2022-12-18T16:47:53.503Z,-1.03
2022-12-18T16:50:21.408Z,-0.97
2022-12-18T16:52:49.505Z,-0.88
2022-12-18T16:55:17.902Z,-0.93
2022-12-18T16:57:46.010Z,-1.05
2022-12-18T17:00:15.159Z,-1.04
2022-12-18T17:02:44.728Z,-1.04
2022-12-18T17:05:14.213Z,-0.95
2022-12-18T17:07:42.148Z,-0.88
2022-12-18T17:10:11.017Z,-0.90
2022-12-18T17:12:39.407Z,-0.89
2022-12-18T17:15:08.778Z,-0.83
2022-12-18T17:17:36.859Z,-0.89
2022-12-18T17:20:09.353Z,-0.86
2022-12-18T17:22:39.238Z,-0.98
2022-12-18T17:25:07.393Z,-0.91
2022-12-18T17:27:35.531Z,-0.84
2022-12-18T17:30:03.593Z,-0.76
2022-12-18T17:32:31.828Z,-0.76
2022-12-18T17:35:05.435Z,-0.93
2022-12-18T17:37:35.123Z,-0.87
2022-12-18T17:40:05.519Z,-0.88
2022-12-18T17:42:34.992Z,-0.76
2022-12-18T17:45:03.533Z,-0.79
2022-12-18T17:47:31.579Z,-0.82
2022-12-18T17:50:00.194Z,-1.01
2022-12-18T17:52:28.087Z,-1.01
2022-12-18T17:54:56.424Z,-0.84
2022-12-18T17:57:25.647Z,-0.93
2022-12-18T17:59:55.953Z,-0.98
2022-12-18T18:02:24.203Z,-1.02
2022-12-18T18:04:55.260Z,-0.98
2022-12-18T18:07:23.300Z,-1.00
2022-12-18T18:09:51.328Z,-0.92
2022-12-18T18:12:37.360Z,-0.96
2022-12-18T18:15:08.882Z,-0.92
2022-12-18T18:17:37.260Z,-0.94
2022-12-18T18:20:09.458Z,-0.86
2022-12-18T18:22:37.870Z,-0.80
2022-12-18T18:25:11.008Z,-0.80
2022-12-18T18:27:39.722Z,-0.78
2022-12-18T18:30:11.228Z,-0.81
2022-12-18T18:32:40.392Z,-0.89
2022-12-18T18:35:19.496Z,-0.89
2022-12-18T18:37:58.287Z,-0.86
2022-12-18T18:40:26.475Z,-0.83
2022-12-18T18:42:57.693Z,-0.95
2022-12-18T18:45:29.420Z,-0.80
2022-12-18T18:47:58.913Z,-0.79
2022-12-18T18:50:30.057Z,-0.81
2022-12-18T18:52:58.073Z,-0.83
2022-12-18T18:55:26.579Z,-0.87
2022-12-18T18:57:54.633Z,-0.93
2022-12-18T19:00:22.752Z,-0.88
2022-12-18T19:02:57.742Z,-0.88
2022-12-18T19:05:32.496Z,-0.88
2022-12-18T19:08:00.603Z,-0.92
2022-12-18T19:10:28.873Z,-0.96
2022-12-18T19:13:14.289Z,-0.92
2022-12-18T19:15:42.187Z,-0.93
2022-12-18T19:18:11.654Z,-0.89
2022-12-18T19:20:40.212Z,-0.93
2022-12-18T19:23:08.162Z,-0.94
2022-12-18T19:25:41.676Z,-0.89
2022-12-18T19:28:19.281Z,-0.90
2022-12-18T19:30:57.874Z,-0.84
2022-12-18T19:33:45.405Z,-1.01
2022-12-18T19:36:16.470Z,-0.92
2022-12-18T19:38:45.384Z,-0.78
2022-12-18T19:41:13.931Z,-0.77
2022-12-18T19:43:42.841Z,-0.86
2022-12-18T19:46:13.521Z,-1.00
2022-12-18T19:48:44.329Z,-1.00
2022-12-18T19:51:17.466Z,-1.03
2022-12-18T19:53:45.819Z,-1.02
2022-12-18T19:56:16.738Z,-1.00
2022-12-18T19:58:45.535Z,-0.98
2022-12-18T20:01:13.988Z,-1.04
2022-12-18T20:03:52.286Z,-1.04
2022-12-18T20:06:27.987Z,-1.03
2022-12-18T20:09:00.667Z,-0.92
2022-12-18T20:11:29.892Z,-0.93
2022-12-18T20:13:58.171Z,-0.96
2022-12-18T20:16:26.197Z,-0.89
2022-12-18T20:18:59.861Z,-0.88
2022-12-18T20:21:28.253Z,-0.92
2022-12-18T20:23:56.555Z,-0.92
2022-12-18T20:26:24.906Z,-0.88
2022-12-18T20:28:53.382Z,-0.95
2022-12-18T20:31:21.455Z,-0.92
2022-12-18T20:33:53.250Z,-0.79
2022-12-18T20:36:23.610Z,-0.85
2022-12-18T20:38:58.243Z,-0.79
2022-12-18T20:41:37.402Z,-0.73
2022-12-18T20:44:19.026Z,-0.81
2022-12-18T20:46:50.472Z,-0.77
2022-12-18T20:49:18.503Z,-0.87
2022-12-18T20:51:51.116Z,-0.91
2022-12-18T20:54:19.053Z,-0.86
2022-12-18T20:56:46.981Z,-0.80
2022-12-18T20:59:15.193Z,-0.64
2022-12-18T21:01:48.154Z,-0.62
2022-12-18T21:04:18.149Z,-0.57
2022-12-18T21:06:52.340Z,-0.57
2022-12-18T21:09:22.538Z,-0.59
2022-12-18T21:12:08.750Z,-0.65
2022-12-18T21:14:40.809Z,-0.68
2022-12-18T21:17:09.356Z,-0.69
2022-12-18T21:19:37.494Z,-0.74
2022-12-18T21:22:07.039Z,-0.73
2022-12-18T21:24:35.047Z,-0.77
2022-12-18T21:27:03.566Z,-0.67
2022-12-18T21:29:31.807Z,-0.59
2022-12-18T21:32:00.289Z,-0.54
2022-12-18T21:34:30.362Z,-0.42
2022-12-18T21:37:00.949Z,-0.39
2022-12-18T21:39:32.249Z,-0.27
2022-12-18T21:42:18.146Z,-0.26
2022-12-18T21:44:48.846Z,-0.41
2022-12-18T21:47:23.007Z,-0.46
2022-12-18T21:49:53.217Z,-0.28
2022-12-18T21:52:29.834Z,-0.32
2022-12-18T21:55:08.569Z,-0.27
2022-12-18T21:57:38.353Z,-0.42
2022-12-18T22:00:07.633Z,-0.39
2022-12-18T22:02:35.713Z,-0.28
2022-12-18T22:05:03.788Z,-0.27
2022-12-18T22:07:32.160Z,-0.25
2022-12-18T22:10:00.397Z,-0.19
2022-12-18T22:12:42.890Z,-0.24
2022-12-18T22:15:21.154Z,-0.29
2022-12-18T22:17:50.070Z,-0.23
2022-12-18T22:20:18.039Z,-0.08
2022-12-18T22:22:48.150Z,-0.07
2022-12-18T22:25:16.391Z,-0.10
2022-12-18T22:28:06.014Z,-0.12
2022-12-18T22:30:33.059Z,-0.08
2022-12-18T22:33:01.053Z,-0.02
2022-12-18T22:35:28.953Z,-0.02
2022-12-18T22:37:58.099Z,-0.18
2022-12-18T22:40:26.786Z,-0.22
2022-12-18T22:42:56.412Z,-0.31
2022-12-18T22:45:24.938Z,-0.25
2022-12-18T22:47:53.122Z,-0.16
2022-12-18T22:50:21.293Z,-0.08
2022-12-18T22:52:49.395Z,-0.09
2022-12-18T22:55:17.369Z,-0.07
2022-12-18T22:57:49.014Z,-0.08
2022-12-18T23:00:23.864Z,-0.09
2022-12-18T23:02:59.258Z,-0.05
2022-12-18T23:05:29.561Z,-0.02
2022-12-18T23:07:58.399Z,-0.05
2022-12-18T23:10:27.290Z,-0.17
2022-12-18T23:12:55.331Z,-0.24
2022-12-18T23:15:28.252Z,-0.15
2022-12-18T23:17:58.833Z,-0.19
2022-12-18T23:20:27.662Z,-0.08
2022-12-18T23:22:55.673Z,0.04
2022-12-18T23:25:23.686Z,0.03
2022-12-18T23:27:51.651Z,-0.14
2022-12-18T23:30:19.830Z,-0.18
2022-12-18T23:32:49.541Z,-0.26
2022-12-18T23:35:18.091Z,-0.30
2022-12-18T23:37:58.906Z,-0.19
2022-12-18T23:40:27.855Z,-0.21
2022-12-18T23:42:55.748Z,-0.20
2022-12-18T23:45:23.653Z,-0.21
2022-12-18T23:47:53.076Z,-0.21
2022-12-18T23:50:22.124Z,-0.12
2022-12-18T23:53:04.658Z,-0.16
2022-12-18T23:55:34.604Z,-0.09
2022-12-18T23:58:02.526Z,-0.06
